createdAt,value
2022-12-11T00:02:18.394Z,82.44
2022-12-11T00:04:48.061Z,82.41
2022-12-11T00:07:20.280Z,82.42
2022-12-11T00:09:49.875Z,82.58
2022-12-11T00:12:19.980Z,82.74
2022-12-11T00:14:49.604Z,82.57
2022-12-11T00:17:19.168Z,82.49
2022-12-11T00:19:48.753Z,82.65
2022-12-11T00:22:20.889Z,82.75
2022-12-11T00:24:50.726Z,82.80
2022-12-11T00:27:20.267Z,82.99
2022-12-11T00:29:50.363Z,82.81
2022-12-11T00:32:19.963Z,83.13
2022-12-11T00:34:49.577Z,83.22
2022-12-11T00:37:21.744Z,83.11
2022-12-11T00:39:51.503Z,83.15
2022-12-11T00:42:21.067Z,83.16
2022-12-11T00:44:50.967Z,83.09
2022-12-11T00:47:20.546Z,83.49
2022-12-11T00:49:50.399Z,83.77
2022-12-11T00:52:22.697Z,83.56
2022-12-11T00:54:52.275Z,83.62
2022-12-11T00:57:21.858Z,83.60
2022-12-11T00:59:51.401Z,83.88
2022-12-11T01:02:21.038Z,83.98
2022-12-11T01:04:50.593Z,84.11
2022-12-11T01:07:22.747Z,84.15
2022-12-11T01:10:04.749Z,84.07
2022-12-11T01:12:34.364Z,84.20
2022-12-11T01:15:04.197Z,84.41
2022-12-11T01:17:33.836Z,84.37
2022-12-11T01:20:04.293Z,84.41
2022-12-11T01:22:36.481Z,84.40
2022-12-11T01:25:06.395Z,84.43
2022-12-11T01:27:36.098Z,84.33
2022-12-11T01:30:07.473Z,84.54
2022-12-11T01:32:37.615Z,84.55
2022-12-11T01:35:08.359Z,84.48
2022-12-11T01:37:40.776Z,84.73
2022-12-11T01:40:12.232Z,84.80
2022-12-11T01:42:41.799Z,84.57
2022-12-11T01:45:36.529Z,84.73
2022-12-11T01:48:09.515Z,84.80
2022-12-11T01:50:42.537Z,84.76
2022-12-11T01:53:18.220Z,84.85
2022-12-11T01:55:49.341Z,84.87
2022-12-11T01:58:19.351Z,84.58
2022-12-11T02:00:49.192Z,84.88
2022-12-11T02:03:19.364Z,84.93
2022-12-11T02:05:48.977Z,84.97
2022-12-11T02:08:21.465Z,84.91
2022-12-11T02:10:59.275Z,84.88
2022-12-11T02:13:34.273Z,84.98
2022-12-11T02:16:10.799Z,85.10
2022-12-11T02:18:47.050Z,84.93
2022-12-11T02:21:21.939Z,84.87
2022-12-11T02:24:06.258Z,85.12
2022-12-11T02:26:58.059Z,84.92
2022-12-11T02:29:36.406Z,84.98
2022-12-11T02:32:08.858Z,85.04
2022-12-11T02:34:42.920Z,85.07
2022-12-11T02:37:17.151Z,84.92
2022-12-11T02:39:46.464Z,85.03
2022-12-11T02:42:17.055Z,84.86
2022-12-11T02:44:49.631Z,85.11
2022-12-11T02:47:20.310Z,85.09
2022-12-11T02:49:52.523Z,85.00
2022-12-11T02:52:24.575Z,85.15
2022-12-11T02:54:55.374Z,85.20
2022-12-11T02:57:27.041Z,85.10
2022-12-11T02:59:59.191Z,85.35
2022-12-11T03:02:28.871Z,85.17
2022-12-11T03:04:59.491Z,85.36
2022-12-11T03:07:31.986Z,85.29
2022-12-11T03:10:01.651Z,85.37
2022-12-11T03:12:33.307Z,85.35
2022-12-11T03:15:10.078Z,85.55
2022-12-11T03:17:45.989Z,85.54
2022-12-11T03:20:21.443Z,85.51
2022-12-11T03:22:54.428Z,85.45
2022-12-11T03:25:25.923Z,85.29
2022-12-11T03:28:01.200Z,85.21
2022-12-11T03:30:34.194Z,85.33
2022-12-11T03:33:06.963Z,85.38
2022-12-11T03:35:38.782Z,85.33
2022-12-11T03:38:12.806Z,85.12
2022-12-11T03:40:43.412Z,85.21
2022-12-11T03:43:14.339Z,84.94
2022-12-11T03:45:47.837Z,85.30
2022-12-11T03:48:18.219Z,84.96
2022-12-11T03:50:49.092Z,85.08
2022-12-11T03:53:19.474Z,85.10
2022-12-11T03:55:49.267Z,84.85
2022-12-11T03:58:18.811Z,85.05
2022-12-11T04:00:51.047Z,85.09
2022-12-11T04:03:20.655Z,85.06
2022-12-11T04:05:51.577Z,84.87
2022-12-11T04:08:23.388Z,84.68
2022-12-11T04:11:13.860Z,84.79
2022-12-11T04:13:44.399Z,84.57
2022-12-11T04:16:14.062Z,84.92
2022-12-11T04:18:56.108Z,84.67
2022-12-11T04:21:39.817Z,84.61
2022-12-11T04:24:18.876Z,84.75
2022-12-11T04:26:49.655Z,84.52
2022-12-11T04:29:19.199Z,84.50
2022-12-11T04:31:51.346Z,84.69
2022-12-11T04:34:20.898Z,84.42
2022-12-11T04:36:50.507Z,84.26
2022-12-11T04:39:20.177Z,84.35
2022-12-11T04:41:49.751Z,84.52
2022-12-11T04:44:19.304Z,84.49
2022-12-11T04:46:51.472Z,84.52
2022-12-11T04:49:21.070Z,84.63
2022-12-11T04:51:50.617Z,84.45
2022-12-11T04:54:20.185Z,84.24
2022-12-11T04:56:49.790Z,84.42
2022-12-11T04:59:19.380Z,84.39
2022-12-11T05:01:51.609Z,84.19
2022-12-11T05:04:21.235Z,84.21
2022-12-11T05:06:52.054Z,84.14
2022-12-11T05:09:21.701Z,84.33
2022-12-11T05:11:51.757Z,84.18
2022-12-11T05:14:21.553Z,84.48
2022-12-11T05:16:53.691Z,84.48
2022-12-11T05:19:23.244Z,84.19
2022-12-11T05:21:52.856Z,84.10
2022-12-11T05:24:22.501Z,84.19
2022-12-11T05:26:52.020Z,84.06
2022-12-11T05:29:21.587Z,84.20
2022-12-11T05:31:53.700Z,84.09
2022-12-11T05:34:23.276Z,84.47
2022-12-11T05:36:52.816Z,84.12
2022-12-11T05:39:22.523Z,84.11
2022-12-11T05:41:52.039Z,84.20
2022-12-11T05:44:21.602Z,84.20
2022-12-11T05:46:53.770Z,84.11
2022-12-11T05:49:30.517Z,84.03
2022-12-11T05:52:00.507Z,84.05
2022-12-11T05:54:30.100Z,83.75
2022-12-11T05:56:59.627Z,83.69
2022-12-11T05:59:29.182Z,83.61
2022-12-11T06:02:01.564Z,83.62
2022-12-11T06:04:31.232Z,83.68
2022-12-11T06:07:00.811Z,83.51
2022-12-11T06:09:30.376Z,83.43
2022-12-11T06:11:59.932Z,83.41
2022-12-11T06:14:29.530Z,83.49
2022-12-11T06:17:01.675Z,83.33
2022-12-11T06:19:36.590Z,83.17
2022-12-11T06:22:06.627Z,83.08
2022-12-11T06:24:36.263Z,83.24
2022-12-11T06:27:05.787Z,83.11
2022-12-11T06:29:35.768Z,83.09
2022-12-11T06:32:08.113Z,82.91
2022-12-11T06:34:37.685Z,83.02
2022-12-11T06:37:07.268Z,83.00
2022-12-11T06:39:36.846Z,82.76
2022-12-11T06:42:06.720Z,82.90
2022-12-11T06:44:36.278Z,82.89
2022-12-11T06:47:08.947Z,82.53
2022-12-11T06:49:38.506Z,82.69
2022-12-11T06:52:11.518Z,82.66
2022-12-11T06:54:43.256Z,82.42
2022-12-11T06:57:12.925Z,82.21
2022-12-11T06:59:42.596Z,82.19
2022-12-11T07:02:16.296Z,82.20
2022-12-11T07:04:49.272Z,82.30
2022-12-11T07:07:21.453Z,82.25
2022-12-11T07:09:51.045Z,81.88
2022-12-11T07:12:21.151Z,82.00
2022-12-11T07:14:50.693Z,82.01
2022-12-11T07:17:22.806Z,82.05
2022-12-11T07:19:52.389Z,82.06
2022-12-11T07:22:21.930Z,82.15
2022-12-11T07:24:51.471Z,82.18
2022-12-11T07:27:21.028Z,81.95
2022-12-11T07:29:50.655Z,82.45
2022-12-11T07:32:22.848Z,82.61
2022-12-11T07:34:52.731Z,82.87
2022-12-11T07:37:22.264Z,82.69
2022-12-11T07:39:51.793Z,82.71
2022-12-11T07:42:21.330Z,82.78
2022-12-11T07:44:51.307Z,82.80
2022-12-11T07:47:23.461Z,82.95
2022-12-11T07:49:53.041Z,82.99
2022-12-11T07:52:22.805Z,82.83
2022-12-11T07:54:52.440Z,82.92
2022-12-11T07:57:22.016Z,83.09
2022-12-11T07:59:51.590Z,82.79
2022-12-11T08:02:23.816Z,82.65
2022-12-11T08:04:53.427Z,82.57
2022-12-11T08:07:22.938Z,82.41
2022-12-11T08:09:52.508Z,82.29
2022-12-11T08:12:22.307Z,82.33
2022-12-11T08:14:51.891Z,82.32
2022-12-11T08:17:29.105Z,82.31
2022-12-11T08:19:59.738Z,82.11
2022-12-11T08:22:29.407Z,82.03
2022-12-11T08:24:58.939Z,82.20
2022-12-11T08:27:28.452Z,82.20
2022-12-11T08:29:58.008Z,82.17
2022-12-11T08:32:30.107Z,82.15
2022-12-11T08:34:59.657Z,82.30
2022-12-11T08:37:29.647Z,82.10
2022-12-11T08:39:59.202Z,82.30
2022-12-11T08:42:28.826Z,82.11
2022-12-11T08:44:58.373Z,82.27
2022-12-11T08:47:30.819Z,82.23
2022-12-11T08:50:00.358Z,82.04
2022-12-11T08:52:31.396Z,81.87
2022-12-11T08:55:01.010Z,81.95
2022-12-11T08:57:30.750Z,81.76
2022-12-11T09:00:00.463Z,81.93
2022-12-11T09:02:32.610Z,81.88
2022-12-11T09:05:02.190Z,81.55
2022-12-11T09:07:31.722Z,81.56
2022-12-11T09:10:01.288Z,81.66
2022-12-11T09:12:31.239Z,81.50
2022-12-11T09:15:01.080Z,81.43
2022-12-11T09:17:33.205Z,81.40
2022-12-11T09:20:02.772Z,81.24
2022-12-11T09:22:32.304Z,80.91
2022-12-11T09:25:01.981Z,81.02
2022-12-11T09:27:31.901Z,80.98
2022-12-11T09:30:01.488Z,80.70
2022-12-11T09:32:33.603Z,80.88
2022-12-11T09:35:03.147Z,80.72
2022-12-11T09:37:32.676Z,80.53
2022-12-11T09:40:07.261Z,80.50
2022-12-11T09:42:48.591Z,80.69
2022-12-11T09:45:19.101Z,80.54
2022-12-11T09:47:53.001Z,80.55
2022-12-11T09:50:25.657Z,80.35
2022-12-11T09:53:02.886Z,80.40
2022-12-11T09:55:36.929Z,80.19
2022-12-11T09:58:09.723Z,80.32
2022-12-11T10:00:43.077Z,80.21
2022-12-11T10:03:40.892Z,80.19
2022-12-11T10:06:17.632Z,79.99
2022-12-11T10:08:54.412Z,80.09
2022-12-11T10:11:35.663Z,80.10
2022-12-11T10:14:09.448Z,80.15
2022-12-11T10:16:42.296Z,79.91
2022-12-11T10:19:22.082Z,80.21
2022-12-11T10:21:52.927Z,79.80
2022-12-11T10:25:05.772Z,80.11
2022-12-11T10:27:19.377Z,79.74
2022-12-11T10:29:49.073Z,79.81
2022-12-11T10:32:25.725Z,79.75
2022-12-11T10:35:00.702Z,79.74
2022-12-11T10:37:30.438Z,79.88
2022-12-11T10:39:59.983Z,79.77
2022-12-11T10:42:29.663Z,79.55
2022-12-11T10:45:01.252Z,79.67
2022-12-11T10:47:34.022Z,79.57
2022-12-11T10:50:07.184Z,79.37
2022-12-11T10:52:40.747Z,79.29
2022-12-11T10:55:22.045Z,79.21
2022-12-11T10:57:58.396Z,79.23
2022-12-11T11:00:37.678Z,79.04
2022-12-11T11:03:08.453Z,78.97
2022-12-11T11:05:46.244Z,78.74
2022-12-11T11:08:22.611Z,78.79
2022-12-11T11:10:56.685Z,78.56
2022-12-11T11:13:27.812Z,78.70
2022-12-11T11:16:03.208Z,78.73
2022-12-11T11:18:33.588Z,78.28
2022-12-11T11:21:06.389Z,78.29
2022-12-11T11:23:42.726Z,78.60
2022-12-11T11:26:14.705Z,78.45
2022-12-11T11:28:49.980Z,78.69
2022-12-11T11:31:20.994Z,78.39
2022-12-11T11:33:57.977Z,78.35
2022-12-11T11:36:31.756Z,78.16
2022-12-11T11:39:13.520Z,78.35
2022-12-11T11:41:49.824Z,78.01
2022-12-11T11:44:23.018Z,78.21
2022-12-11T11:46:58.726Z,78.27
2022-12-11T11:49:47.544Z,78.09
2022-12-11T11:52:25.696Z,78.22
2022-12-11T11:55:00.878Z,78.16
2022-12-11T11:57:37.885Z,78.10
2022-12-11T12:00:10.845Z,77.96
2022-12-11T12:02:44.140Z,77.63
2022-12-11T12:05:15.431Z,77.61
2022-12-11T12:07:52.944Z,77.20
2022-12-11T12:10:26.781Z,77.07
2022-12-11T12:13:01.378Z,76.86
2022-12-11T12:15:38.545Z,76.98
2022-12-11T12:18:14.875Z,76.76
2022-12-11T12:20:51.199Z,76.68
2022-12-11T12:23:36.655Z,76.59
2022-12-11T12:26:11.933Z,76.82
2022-12-11T12:28:45.120Z,76.60
2022-12-11T12:31:24.201Z,76.54
2022-12-11T12:33:58.899Z,76.44
2022-12-11T12:36:31.154Z,76.60
2022-12-11T12:39:06.108Z,76.71
2022-12-11T12:41:42.756Z,76.38
2022-12-11T12:44:20.040Z,76.38
2022-12-11T12:46:54.703Z,76.21
2022-12-11T12:49:33.942Z,76.31
2022-12-11T12:52:04.315Z,76.61
2022-12-11T12:54:36.867Z,76.48
2022-12-11T12:57:07.314Z,76.46
2022-12-11T12:59:36.862Z,76.50
2022-12-11T13:02:08.916Z,76.82
2022-12-11T13:04:56.865Z,76.53
2022-12-11T13:07:30.386Z,76.52
2022-12-11T13:10:07.039Z,76.53
2022-12-11T13:12:47.694Z,76.66
2022-12-11T13:15:33.344Z,76.70
2022-12-11T13:18:04.343Z,76.83
2022-12-11T13:20:35.486Z,76.86
2022-12-11T13:23:18.609Z,76.83
2022-12-11T13:25:53.337Z,76.77
2022-12-11T13:28:31.620Z,76.75
2022-12-11T13:31:10.272Z,76.51
2022-12-11T13:33:46.688Z,76.88
2022-12-11T13:36:28.092Z,76.85
2022-12-11T13:39:00.666Z,76.97
2022-12-11T13:41:33.289Z,76.99
2022-12-11T13:44:02.945Z,76.64
2022-12-11T13:46:35.563Z,76.72
2022-12-11T13:49:07.585Z,76.83
2022-12-11T13:51:38.057Z,76.82
2022-12-11T13:54:16.943Z,76.80
2022-12-11T13:56:59.797Z,76.60
2022-12-11T13:59:32.805Z,76.60
2022-12-11T14:02:06.331Z,76.66
2022-12-11T14:04:37.147Z,76.75
2022-12-11T14:07:09.844Z,76.48
2022-12-11T14:09:42.900Z,76.49
2022-12-11T14:12:21.773Z,76.62
2022-12-11T14:14:54.075Z,76.42
2022-12-11T14:17:27.518Z,76.54
2022-12-11T14:19:58.276Z,76.33
2022-12-11T14:22:29.776Z,76.63
2022-12-11T14:25:02.813Z,76.61
2022-12-11T14:27:34.982Z,76.56
2022-12-11T14:30:13.784Z,76.57
2022-12-11T14:32:46.125Z,76.77
2022-12-11T14:35:27.613Z,76.66
2022-12-11T14:37:57.508Z,76.69
2022-12-11T14:40:31.734Z,76.46
2022-12-11T14:43:06.368Z,76.40
2022-12-11T14:45:37.708Z,76.72
2022-12-11T14:48:11.568Z,76.44
2022-12-11T14:50:43.794Z,76.58
2022-12-11T14:53:17.233Z,76.47
2022-12-11T14:55:47.005Z,76.42
2022-12-11T14:58:21.988Z,76.12
2022-12-11T15:01:00.748Z,76.25
2022-12-11T15:03:34.734Z,75.93
2022-12-11T15:06:05.366Z,75.88
2022-12-11T15:08:37.001Z,75.63
2022-12-11T15:11:09.122Z,75.50
2022-12-11T15:13:43.093Z,75.60
2022-12-11T15:16:17.472Z,75.72
2022-12-11T15:18:50.752Z,75.51
2022-12-11T15:21:21.056Z,75.66
2022-12-11T15:23:55.038Z,75.52
2022-12-11T15:26:36.372Z,75.28
2022-12-11T15:29:22.582Z,75.31
2022-12-11T15:32:02.169Z,75.34
2022-12-11T15:34:36.334Z,75.04
2022-12-11T15:37:05.669Z,75.03
2022-12-11T15:39:35.219Z,75.24
2022-12-11T15:42:09.819Z,74.98
2022-12-11T15:44:43.985Z,75.02
2022-12-11T15:47:16.432Z,74.98
2022-12-11T15:49:45.991Z,74.94
2022-12-11T15:52:15.607Z,74.95
2022-12-11T15:54:45.166Z,75.04
2022-12-11T15:57:19.387Z,74.96
2022-12-11T15:59:51.471Z,74.99
2022-12-11T16:02:21.554Z,74.80
2022-12-11T16:04:51.140Z,74.91
2022-12-11T16:07:22.269Z,74.86
2022-12-11T16:09:52.313Z,74.99
2022-12-11T16:12:21.931Z,74.86
2022-12-11T16:14:54.074Z,75.07
2022-12-11T16:17:23.899Z,75.21
2022-12-11T16:19:54.185Z,75.10
2022-12-11T16:22:23.759Z,75.01
2022-12-11T16:24:56.100Z,75.00
2022-12-11T16:27:26.412Z,74.89
2022-12-11T16:29:58.862Z,74.98
2022-12-11T16:32:28.476Z,75.00
2022-12-11T16:35:01.211Z,75.08
2022-12-11T16:37:31.056Z,75.17
2022-12-11T16:40:00.780Z,75.23
2022-12-11T16:42:30.490Z,75.31
2022-12-11T16:45:08.576Z,75.02
2022-12-11T16:47:38.188Z,75.04
2022-12-11T16:50:08.564Z,75.05
2022-12-11T16:52:38.363Z,75.28
2022-12-11T16:55:09.260Z,75.31
2022-12-11T16:57:39.239Z,75.57
2022-12-11T17:00:14.223Z,75.36
2022-12-11T17:02:44.191Z,75.30
2022-12-11T17:05:13.999Z,75.42
2022-12-11T17:07:43.817Z,75.57
2022-12-11T17:10:13.524Z,75.51
2022-12-11T17:12:43.094Z,75.84
2022-12-11T17:15:15.429Z,75.95
2022-12-11T17:17:44.991Z,76.01
2022-12-11T17:20:14.751Z,75.80
2022-12-11T17:22:46.024Z,75.96
2022-12-11T17:25:19.299Z,75.82
2022-12-11T17:27:48.868Z,75.99
2022-12-11T17:30:21.159Z,75.99
2022-12-11T17:32:51.181Z,76.28
2022-12-11T17:35:21.020Z,76.24
2022-12-11T17:37:50.543Z,76.22
2022-12-11T17:40:22.616Z,76.23
2022-12-11T17:42:52.177Z,76.43
2022-12-11T17:45:24.336Z,76.31
2022-12-11T17:47:53.848Z,76.52
2022-12-11T17:50:23.388Z,76.53
2022-12-11T17:52:52.951Z,76.59
2022-12-11T17:55:22.578Z,76.53
2022-12-11T17:57:52.249Z,76.44
2022-12-11T18:00:27.458Z,76.65
2022-12-11T18:03:01.153Z,76.44
2022-12-11T18:05:31.413Z,76.46
2022-12-11T18:08:01.096Z,76.70
2022-12-11T18:10:30.741Z,76.51
2022-12-11T18:13:01.006Z,76.58
2022-12-11T18:15:33.194Z,76.78
2022-12-11T18:18:02.870Z,77.01
2022-12-11T18:20:33.776Z,77.00
2022-12-11T18:23:04.276Z,77.13
2022-12-11T18:25:34.116Z,77.19
2022-12-11T18:28:03.727Z,77.01
2022-12-11T18:30:35.989Z,77.28
2022-12-11T18:33:05.612Z,77.08
2022-12-11T18:35:35.191Z,77.21
2022-12-11T18:38:04.864Z,77.23
2022-12-11T18:40:34.436Z,77.26
2022-12-11T18:43:03.963Z,77.17
2022-12-11T18:45:36.296Z,76.97
2022-12-11T18:48:06.436Z,76.93
2022-12-11T18:50:36.104Z,77.20
2022-12-11T18:53:05.841Z,76.88
2022-12-11T18:55:35.831Z,76.86
2022-12-11T18:58:05.377Z,77.05
2022-12-11T19:00:37.569Z,77.08
2022-12-11T19:03:07.176Z,76.73
2022-12-11T19:05:40.331Z,76.64
2022-12-11T19:08:10.006Z,77.00
2022-12-11T19:10:44.000Z,76.78
2022-12-11T19:13:13.881Z,76.76
2022-12-11T19:15:46.614Z,76.67
2022-12-11T19:18:16.224Z,76.43
2022-12-11T19:20:50.627Z,76.63
2022-12-11T19:23:23.449Z,76.83
2022-12-11T19:25:53.274Z,76.75
2022-12-11T19:28:22.846Z,76.85
2022-12-11T19:30:55.033Z,76.54
2022-12-11T19:33:24.654Z,76.63
2022-12-11T19:36:03.467Z,76.78
2022-12-11T19:38:33.007Z,76.76
2022-12-11T19:41:02.753Z,76.60
2022-12-11T19:43:32.336Z,76.42
2022-12-11T19:46:05.551Z,76.61
2022-12-11T19:48:37.466Z,76.55
2022-12-11T19:51:08.005Z,76.53
2022-12-11T19:53:38.439Z,76.65
2022-12-11T19:56:08.841Z,76.87
2022-12-11T19:58:38.551Z,76.39
2022-12-11T20:01:11.243Z,76.41
2022-12-11T20:03:41.406Z,76.50
2022-12-11T20:06:11.272Z,76.73
2022-12-11T20:08:45.718Z,76.67
2022-12-11T20:11:18.758Z,76.70
2022-12-11T20:13:48.999Z,76.69
2022-12-11T20:16:39.084Z,76.81
2022-12-11T20:19:11.531Z,76.52
2022-12-11T20:21:41.100Z,76.71
2022-12-11T20:24:11.508Z,76.76
2022-12-11T20:26:41.361Z,76.80
2022-12-11T20:29:10.927Z,76.66
2022-12-11T20:31:44.573Z,76.72
2022-12-11T20:34:14.588Z,76.88
2022-12-11T20:36:44.301Z,76.72
2022-12-11T20:39:15.101Z,76.83
2022-12-11T20:41:44.752Z,76.70
2022-12-11T20:44:14.302Z,76.95
2022-12-11T20:46:46.456Z,76.76
2022-12-11T20:49:16.571Z,76.75
2022-12-11T20:51:46.135Z,76.79
2022-12-11T20:54:15.694Z,76.78
2022-12-11T20:56:45.252Z,76.83
2022-12-11T20:59:14.853Z,76.99
2022-12-11T21:01:47.031Z,77.01
2022-12-11T21:04:16.640Z,77.14
2022-12-11T21:06:46.190Z,77.08
2022-12-11T21:09:18.124Z,77.02
2022-12-11T21:11:48.053Z,77.25
2022-12-11T21:14:18.607Z,77.28
2022-12-11T21:16:50.998Z,77.13
2022-12-11T21:19:21.241Z,77.13
2022-12-11T21:21:51.056Z,77.21
2022-12-11T21:24:26.408Z,77.09
2022-12-11T21:26:57.668Z,77.00
2022-12-11T21:29:29.388Z,77.10
2022-12-11T21:32:01.688Z,77.32
2022-12-11T21:34:31.300Z,77.09
2022-12-11T21:37:00.862Z,77.25
2022-12-11T21:39:36.076Z,77.21
2022-12-11T21:42:08.724Z,77.19
2022-12-11T21:45:31.351Z,77.22
2022-12-11T21:47:30.563Z,77.01
2022-12-11T21:50:00.174Z,77.13
2022-12-11T21:52:30.019Z,77.25
2022-12-11T21:54:59.654Z,77.07
2022-12-11T21:57:30.148Z,77.28
2022-12-11T21:59:59.764Z,77.41
2022-12-11T22:02:36.012Z,77.41
2022-12-11T22:05:10.522Z,77.29
2022-12-11T22:07:40.493Z,77.39
2022-12-11T22:10:11.434Z,77.19
2022-12-11T22:12:41.091Z,77.37
2022-12-11T22:15:12.220Z,77.47
2022-12-11T22:17:44.562Z,77.40
2022-12-11T22:20:14.981Z,77.40
2022-12-11T22:22:44.797Z,77.58
2022-12-11T22:25:14.630Z,77.23
2022-12-11T22:27:44.428Z,77.27
2022-12-11T22:30:15.305Z,77.48
2022-12-11T22:32:47.548Z,77.16
2022-12-11T22:35:17.112Z,77.25
2022-12-11T22:37:46.691Z,77.14
2022-12-11T22:40:16.604Z,77.39
2022-12-11T22:42:46.346Z,77.28
2022-12-11T22:45:16.210Z,77.46
2022-12-11T22:47:48.490Z,77.57
2022-12-11T22:50:19.160Z,77.64
2022-12-11T22:52:48.832Z,77.51
2022-12-11T22:55:18.463Z,77.54
2022-12-11T22:57:48.127Z,77.71
2022-12-11T23:00:18.828Z,77.76
2022-12-11T23:02:51.097Z,77.70
2022-12-11T23:05:20.959Z,77.65
2022-12-11T23:07:50.630Z,77.67
2022-12-11T23:10:20.376Z,77.61
2022-12-11T23:12:49.985Z,77.74
2022-12-11T23:15:19.600Z,77.73
2022-12-11T23:17:51.767Z,77.65
2022-12-11T23:20:21.959Z,77.49
2022-12-11T23:22:51.524Z,77.70
2022-12-11T23:25:21.411Z,77.50
2022-12-11T23:27:51.138Z,77.64
2022-12-11T23:30:20.713Z,77.66
2022-12-11T23:32:52.881Z,77.57
2022-12-11T23:35:22.524Z,77.85
2022-12-11T23:37:52.100Z,77.77
2022-12-11T23:40:21.837Z,77.76
2022-12-11T23:42:51.598Z,77.71
2022-12-11T23:45:21.261Z,77.97
2022-12-11T23:47:53.852Z,77.79
2022-12-11T23:50:23.853Z,77.99
2022-12-11T23:52:53.458Z,77.82
2022-12-11T23:55:25.390Z,77.72
2022-12-11T23:57:55.007Z,77.66
